General E. Mosconi Airport

SAVC · Chubut, 阿根廷

METAR SAVC · General E. Mosconi Airport

22 五月 07:00 LT
33m
罗盘
风向 的 风向 300° General E. Mosconi Airport 7/25
风: 11 kt, 4 beaufort

8 kt

7 kt
改变
0 ft 1.000 2.000 3.000 4.000 5.000
CAVOK
METAR SAVC 221000Z 30011KT CAVOK 05/M02 Q1011

METAR General E. Mosconi Airport - SAVC/CRD

General E. Mosconi Airport是,阿根廷中的中型机场。 该机场位于纬度-45,78530和经度-67,46550。 该机场有一条跑道: 7/25. 本场的ICAO机场代码为SAVC。 该机场的IATA代码为CRD。 机场在Comodoro Rivadavia FIR中。

该航空气象观测是针对General E. Mosconi Airport在2024年5月22日 07:00, 当地时间进行的。

机场观察

风向为300°,速度为11 kt。

天气为CAVOK。这意味着在5.000 ft或MSA(最低安全高度)以下(以较高者为准)以下没有云。这也意味着没有观测到积雨云或高耸的积云,可见度为10 km 或者更多或更高。此外,不会有雾,降雨或其他重要天气。

温度为5 °C,阵风为-1 °C。 露点为-2 °C,相对湿度为61%。 海平面上的气压为1011 hPa (QNH)。

白天

今天,太阳从08:51升起,在18:01降落。 这适用于General E. Mosconi Airport,世界夏令时可能有所不同。 当地时间与世界标准时间之间的时差为-3 小时。 夏令时目前正在进行中。

公司介绍

我们没有关于这个机场的公司信息。

体会

到Vliegles.nl去找飞行课程,跳伞和其他飞行体验。 浏览页面,了解General E. Mosconi Airport附近所有可用的活动。 你也可以使用搜索功能来寻找你所在地附近的特定飞行课程、跳伞或其他飞行体验。

跑道

Id 标题 侧风 逆风 侧风 %
7/25 078°-258° 7 kt 8 kt 67 %

逆风成分最大的方向会被突出显示,并用于横风计算。 这并不一定意味着这个方向在使用。

温度 & 天气

温度 5 °C
露点 -2 °C
相对湿度 61%
风寒 -1 °C
Kp-index 0 (0-9)

白天

日出
08:51 (1:18)
中午
13:26
日落
18:01

小工具

你想在你的网站上有一个关于General E. Mosconi Airport的当前航空天气(METAR)的小部件吗?

显示HTML代码
报告变更